createdAt,value
2022-10-27T00:00:13.388Z,99594.68
2022-10-27T00:02:42.431Z,99591.07
2022-10-27T00:05:10.740Z,99596.38
2022-10-27T00:07:38.712Z,99599.40
2022-10-27T00:10:06.580Z,99595.60
2022-10-27T00:12:34.676Z,99600.02
2022-10-27T00:15:02.310Z,99603.32
2022-10-27T00:17:29.763Z,99604.17
2022-10-27T00:19:57.262Z,99605.61
2022-10-27T00:22:24.778Z,99608.52
2022-10-27T00:24:52.235Z,99611.66
2022-10-27T00:27:19.693Z,99612.59
2022-10-27T00:29:47.251Z,99616.20
2022-10-27T00:32:14.717Z,99614.05
2022-10-27T00:34:42.167Z,99615.42
2022-10-27T00:37:09.725Z,99618.83
2022-10-27T00:39:37.188Z,99625.59
2022-10-27T00:42:04.849Z,99625.98
2022-10-27T00:44:41.620Z,99628.93
2022-10-27T00:47:24.437Z,99627.18
2022-10-27T00:50:05.982Z,99621.58
2022-10-27T00:52:33.398Z,99623.36
2022-10-27T00:55:03.503Z,99626.61
2022-10-27T00:57:30.960Z,99625.25
2022-10-27T00:59:58.616Z,99633.77
2022-10-27T01:02:26.196Z,99632.64
2022-10-27T01:04:56.552Z,99626.96
2022-10-27T01:07:24.061Z,99628.71
2022-10-27T01:09:52.025Z,99631.14
2022-10-27T01:12:19.588Z,99633.65
2022-10-27T01:14:47.146Z,99633.05
2022-10-27T01:17:17.674Z,99634.11
2022-10-27T01:20:07.557Z,99632.23
2022-10-27T01:23:02.986Z,99631.15
2022-10-27T01:25:45.581Z,99631.72
2022-10-27T01:29:00.351Z,99633.08
2022-10-27T01:31:30.448Z,99631.36
2022-10-27T01:34:04.169Z,99631.44
2022-10-27T01:36:42.999Z,99633.30
2022-10-27T01:39:40.358Z,99635.45
2022-10-27T01:42:15.440Z,99640.48
2022-10-27T01:44:45.475Z,99641.18
2022-10-27T01:47:13.065Z,99641.27
2022-10-27T01:49:41.749Z,99639.01
2022-10-27T01:52:38.185Z,99642.42
2022-10-27T01:55:08.529Z,99641.85
2022-10-27T01:57:48.767Z,99644.39
2022-10-27T02:00:16.434Z,99641.13
2022-10-27T02:03:14.948Z,99649.73
2022-10-27T02:06:13.205Z,99654.02
2022-10-27T02:09:09.121Z,99655.77
2022-10-27T02:11:37.901Z,99656.20
2022-10-27T02:14:05.358Z,99657.63
2022-10-27T02:16:34.880Z,99660.09
2022-10-27T02:19:06.520Z,99659.33
2022-10-27T02:21:34.183Z,99663.36
2022-10-27T02:24:01.742Z,99662.14
2022-10-27T02:26:35.340Z,99663.55
2022-10-27T02:29:05.833Z,99667.56
2022-10-27T02:31:39.921Z,99674.03
2022-10-27T02:34:07.440Z,99672.26
2022-10-27T02:36:34.897Z,99673.25
2022-10-27T02:39:02.379Z,99676.48
2022-10-27T02:41:29.819Z,99677.37
2022-10-27T02:43:57.268Z,99680.92
2022-10-27T02:46:24.826Z,99680.77
2022-10-27T02:48:52.386Z,99684.49
2022-10-27T02:51:19.841Z,99684.95
2022-10-27T02:53:47.299Z,99685.48
2022-10-27T02:56:14.756Z,99683.20
2022-10-27T02:58:42.216Z,99683.36
2022-10-27T03:01:09.798Z,99682.60
2022-10-27T03:03:37.466Z,99683.61
2022-10-27T03:06:04.994Z,99691.11
2022-10-27T03:08:32.450Z,99693.61
2022-10-27T03:10:59.917Z,99701.81
2022-10-27T03:13:27.364Z,99701.89
2022-10-27T03:15:54.827Z,99702.65
2022-10-27T03:18:22.277Z,99702.41
2022-10-27T03:20:49.841Z,99701.83
2022-10-27T03:23:17.294Z,99704.73
2022-10-27T03:25:47.693Z,99705.45
2022-10-27T03:28:16.205Z,99707.05
2022-10-27T03:30:48.215Z,99711.46
2022-10-27T03:33:15.623Z,99713.70
2022-10-27T03:35:43.110Z,99714.96
2022-10-27T03:38:11.354Z,99716.79
2022-10-27T03:40:38.818Z,99719.15
2022-10-27T03:43:06.369Z,99719.37
2022-10-27T03:45:35.567Z,99715.44
2022-10-27T03:48:04.757Z,99721.85
2022-10-27T03:50:32.642Z,99717.73
2022-10-27T03:53:00.599Z,99719.58
2022-10-27T03:55:28.057Z,99714.45
2022-10-27T03:57:55.518Z,99715.31
2022-10-27T04:00:23.074Z,99719.98
2022-10-27T04:02:54.784Z,99718.29
2022-10-27T04:05:23.111Z,99717.10
2022-10-27T04:07:50.573Z,99719.27
2022-10-27T04:10:18.434Z,99719.48
2022-10-27T04:12:50.249Z,99717.10
2022-10-27T04:15:18.703Z,99722.40
2022-10-27T04:17:46.226Z,99728.91
2022-10-27T04:20:14.093Z,99726.54
2022-10-27T04:22:41.555Z,99726.77
2022-10-27T04:25:09.211Z,99725.52
2022-10-27T04:27:36.771Z,99722.83
2022-10-27T04:30:04.841Z,99729.91
2022-10-27T04:32:32.303Z,99730.54
2022-10-27T04:34:59.754Z,99733.88
2022-10-27T04:37:29.364Z,99732.67
2022-10-27T04:39:56.819Z,99731.83
2022-10-27T04:42:24.386Z,99732.75
2022-10-27T04:44:51.835Z,99737.06
2022-10-27T04:47:19.417Z,99737.09
2022-10-27T04:49:46.855Z,99736.24
2022-10-27T04:52:14.479Z,99737.77
2022-10-27T04:54:42.296Z,99740.13
2022-10-27T04:57:09.937Z,99742.08
2022-10-27T04:59:37.750Z,99743.63
2022-10-27T05:02:05.289Z,99748.12
2022-10-27T05:04:35.585Z,99747.45
2022-10-27T05:07:03.043Z,99749.23
2022-10-27T05:09:30.503Z,99757.73
2022-10-27T05:11:57.967Z,99765.14
2022-10-27T05:14:25.414Z,99769.58
2022-10-27T05:16:52.873Z,99772.32
2022-10-27T05:19:20.735Z,99774.18
2022-10-27T05:21:48.194Z,99774.13
2022-10-27T05:24:16.472Z,99777.14
2022-10-27T05:26:43.932Z,99781.17
2022-10-27T05:29:11.391Z,99785.57
2022-10-27T05:31:38.942Z,99786.05
2022-10-27T05:34:06.709Z,99794.52
2022-10-27T05:36:34.778Z,99791.07
2022-10-27T05:39:02.232Z,99797.61
2022-10-27T05:41:30.818Z,99799.35
2022-10-27T05:43:59.508Z,99803.55
2022-10-27T05:46:26.966Z,99801.66
2022-10-27T05:48:54.565Z,99806.76
2022-10-27T05:51:21.976Z,99804.50
2022-10-27T05:53:51.381Z,99809.23
2022-10-27T05:56:18.836Z,99810.76
2022-10-27T05:58:46.291Z,99813.33
2022-10-27T06:01:14.012Z,99816.23
2022-10-27T06:03:41.618Z,99819.35
2022-10-27T06:06:10.833Z,99820.94
2022-10-27T06:08:38.272Z,99826.20
2022-10-27T06:11:06.038Z,99825.04
2022-10-27T06:13:33.602Z,99830.52
2022-10-27T06:16:01.153Z,99831.45
2022-10-27T06:18:28.613Z,99835.18
2022-10-27T06:20:56.101Z,99836.69
2022-10-27T06:23:23.530Z,99839.38
2022-10-27T06:25:50.981Z,99842.73
2022-10-27T06:28:18.441Z,99842.93
2022-10-27T06:30:45.894Z,99844.10
2022-10-27T06:33:13.351Z,99844.60
2022-10-27T06:35:40.807Z,99840.89
2022-10-27T06:38:09.704Z,99849.17
2022-10-27T06:40:37.182Z,99855.70
2022-10-27T06:52:56.465Z,99870.06
2022-10-27T06:55:24.843Z,99872.16
2022-10-27T06:57:52.576Z,99874.05
2022-10-27T07:00:21.917Z,99878.07
2022-10-27T07:02:49.570Z,99878.50
2022-10-27T07:05:17.953Z,99879.04
2022-10-27T07:07:50.415Z,99883.32
2022-10-27T07:10:20.948Z,99876.57
2022-10-27T07:12:55.989Z,99880.08
2022-10-27T09:00:10.201Z,99917.55
2022-10-27T09:02:37.774Z,99919.46
2022-10-27T09:05:20.911Z,99917.51
2022-10-27T09:08:15.202Z,99920.41
2022-10-27T09:10:58.985Z,99916.21
2022-10-27T09:13:26.808Z,99914.11
2022-10-27T09:15:55.705Z,99917.11
2022-10-27T09:18:46.197Z,99911.64
2022-10-27T09:21:24.298Z,99912.35
2022-10-27T09:23:57.913Z,99914.33
2022-10-27T09:26:28.231Z,99916.46
2022-10-27T09:28:56.504Z,99911.29
2022-10-27T09:31:29.380Z,99910.57
2022-10-27T09:34:02.067Z,99911.89
2022-10-27T09:36:29.516Z,99914.42
2022-10-27T09:38:56.976Z,99914.70
2022-10-27T09:41:25.464Z,99919.00
2022-10-27T09:43:57.856Z,99917.62
2022-10-27T09:46:28.143Z,99912.73
2022-10-27T09:48:57.406Z,99914.20
2022-10-27T09:51:40.571Z,99913.79
2022-10-27T09:54:07.627Z,99912.02
2022-10-27T09:56:36.401Z,99914.42
2022-10-27T09:59:13.999Z,99915.25
2022-10-27T10:01:44.352Z,99906.08
2022-10-27T10:04:23.286Z,99903.58
2022-10-27T10:06:59.414Z,99910.67
2022-10-27T10:09:30.756Z,99909.77
2022-10-27T10:12:24.484Z,99908.89
2022-10-27T10:15:10.419Z,99906.89
2022-10-27T10:17:42.464Z,99908.30
2022-10-27T10:20:30.012Z,99903.48
2022-10-27T10:22:57.375Z,99905.08
2022-10-27T10:25:30.864Z,99908.01
2022-10-27T10:27:59.242Z,99907.91
2022-10-27T10:30:26.513Z,99906.77
2022-10-27T10:32:57.743Z,99907.73
2022-10-27T10:35:45.037Z,99911.36
2022-10-27T10:38:24.710Z,99907.31
2022-10-27T10:41:04.757Z,99910.94
2022-10-27T10:43:32.314Z,99912.33
2022-10-27T10:45:59.994Z,99915.64
2022-10-27T10:48:52.221Z,99917.66
2022-10-27T10:54:09.665Z,99919.30
2022-10-27T10:56:37.743Z,99920.06
2022-10-27T10:59:07.339Z,99921.05
2022-10-27T11:01:43.530Z,99914.98
2022-10-27T11:04:15.050Z,99914.95
2022-10-27T11:07:00.633Z,99912.75
2022-10-27T11:09:31.066Z,99912.35
2022-10-27T11:11:58.311Z,99912.30
2022-10-27T11:14:25.562Z,99911.90
2022-10-27T11:16:57.225Z,99911.48
2022-10-27T11:19:24.886Z,99911.02
2022-10-27T11:21:59.609Z,99903.77
2022-10-27T11:24:32.161Z,99911.05
2022-10-27T11:27:04.544Z,99909.21
2022-10-27T11:30:12.268Z,99911.61
2022-10-27T11:33:06.161Z,99913.08
2022-10-27T11:35:42.402Z,99915.30
2022-10-27T11:41:05.015Z,99912.48
2022-10-27T11:43:43.575Z,99907.92
2022-10-27T11:46:15.790Z,99913.64
2022-10-27T11:48:51.500Z,99912.39
2022-10-27T11:51:22.864Z,99916.37
2022-10-27T11:53:53.285Z,99917.25
2022-10-27T11:56:42.693Z,99911.48
2022-10-27T11:59:25.360Z,99912.29
2022-10-27T12:01:59.091Z,99910.96
2022-10-27T12:04:52.527Z,99916.10
2022-10-27T12:07:44.879Z,99911.98
2022-10-27T12:10:40.693Z,99911.45
2022-10-27T12:13:16.849Z,99911.39
2022-10-27T12:15:59.829Z,99903.49
2022-10-27T12:18:50.063Z,99905.14
2022-10-27T12:21:32.691Z,99902.83
2022-10-27T12:24:38.021Z,99903.67
2022-10-27T12:27:39.067Z,99901.82
2022-10-27T12:30:11.455Z,99897.38
2022-10-27T12:32:41.936Z,99901.81
2022-10-27T12:35:44.751Z,99900.00
2022-10-27T12:39:03.616Z,99902.92
2022-10-27T12:41:32.950Z,99909.02
2022-10-27T12:44:37.660Z,99904.35
2022-10-27T12:47:19.068Z,99898.49
2022-10-27T12:49:51.613Z,99907.98
2022-10-27T12:52:20.082Z,99896.59
2022-10-27T12:55:06.000Z,99890.38
2022-10-27T12:57:55.569Z,99896.58
2022-10-27T13:03:24.273Z,99902.27
2022-10-27T13:06:32.879Z,99911.15
2022-10-27T13:09:12.421Z,99908.38
2022-10-27T13:11:57.895Z,99909.43
2022-10-27T13:14:34.579Z,99909.64
2022-10-27T13:17:36.022Z,99917.45
2022-10-27T13:20:22.018Z,99914.60
2022-10-27T13:22:54.932Z,99909.65
2022-10-27T13:25:29.585Z,99913.06
2022-10-27T13:28:02.851Z,99911.63
2022-10-27T13:30:31.775Z,99917.31
2022-10-27T13:32:59.068Z,99919.07
2022-10-27T13:35:30.540Z,99915.59
2022-10-27T13:38:00.020Z,99918.05
2022-10-27T13:40:27.277Z,99922.15
2022-10-27T13:43:18.286Z,99920.98
2022-10-27T13:45:48.816Z,99929.08
2022-10-27T13:48:16.074Z,99930.89
2022-10-27T13:50:47.357Z,99934.76
2022-10-27T13:53:20.812Z,99937.59
2022-10-27T13:55:54.145Z,99934.21
2022-10-27T13:58:21.562Z,99937.71
2022-10-27T14:01:16.274Z,99938.71
2022-10-27T14:03:54.366Z,99940.17
2022-10-27T14:06:25.200Z,99939.27
2022-10-27T14:08:53.369Z,99934.45
2022-10-27T14:11:25.888Z,99936.59
2022-10-27T14:13:55.404Z,99932.81
2022-10-27T14:16:25.084Z,99936.30
2022-10-27T14:19:06.550Z,99936.77
2022-10-27T14:21:35.497Z,99937.68
2022-10-27T14:24:07.766Z,99942.40
2022-10-27T14:26:36.644Z,99942.85
2022-10-27T14:29:04.463Z,99941.42
2022-10-27T14:31:33.599Z,99945.41
2022-10-27T14:34:24.666Z,99943.86
2022-10-27T14:36:54.698Z,99945.46
2022-10-27T14:39:21.948Z,99944.71
2022-10-27T14:41:49.532Z,99943.44
2022-10-27T14:44:37.133Z,99944.61
2022-10-27T14:47:11.721Z,99940.55
2022-10-27T14:49:46.064Z,99944.17
2022-10-27T14:52:31.341Z,99942.27
2022-10-27T14:54:58.648Z,99941.67
2022-10-27T14:57:36.822Z,99942.14
2022-10-27T15:00:34.669Z,99933.90
2022-10-27T15:03:06.135Z,99929.45
2022-10-27T15:05:37.470Z,99935.48
2022-10-27T15:08:06.314Z,99940.44
2022-10-27T15:10:36.095Z,99943.81
2022-10-27T15:13:03.339Z,99942.55
2022-10-27T15:15:39.666Z,99946.73
2022-10-27T15:18:28.861Z,99952.73
2022-10-27T15:20:56.089Z,99954.11
2022-10-27T15:23:23.158Z,99953.74
2022-10-27T15:25:56.970Z,99954.70
2022-10-27T15:28:32.301Z,99951.84
2022-10-27T15:30:59.578Z,99951.91
2022-10-27T15:33:26.598Z,99949.50
2022-10-27T15:35:58.473Z,99950.14
2022-10-27T15:38:29.223Z,99952.48
2022-10-27T15:41:06.624Z,99950.41
2022-10-27T15:43:33.733Z,99958.07
2022-10-27T15:46:14.708Z,99955.77
2022-10-27T15:48:41.733Z,99949.98
2022-10-27T15:51:09.108Z,99949.92
2022-10-27T15:53:57.587Z,99949.09
2022-10-27T15:56:37.663Z,99949.61
2022-10-27T15:59:24.870Z,99951.34
2022-10-27T16:02:04.016Z,99949.90
2022-10-27T16:04:36.331Z,99950.64
2022-10-27T16:07:12.596Z,99949.03
2022-10-27T16:09:46.505Z,99952.70
2022-10-27T16:12:14.773Z,99954.80
2022-10-27T16:14:45.823Z,99953.79
2022-10-27T16:17:21.609Z,99957.14
2022-10-27T16:19:49.338Z,99960.81
2022-10-27T16:22:18.247Z,99965.77
2022-10-27T16:24:45.580Z,99965.48
2022-10-27T16:27:26.250Z,99964.57
2022-10-27T16:30:03.545Z,99963.82
2022-10-27T16:32:31.539Z,99968.42
2022-10-27T16:34:58.591Z,99971.74
2022-10-27T16:37:27.435Z,99975.31
2022-10-27T16:39:54.504Z,99978.52
2022-10-27T16:42:22.155Z,99983.06
2022-10-27T16:44:49.566Z,99983.32
2022-10-27T16:47:17.474Z,99983.94
2022-10-27T16:49:44.525Z,99982.25
2022-10-27T16:52:11.743Z,99984.62
2022-10-27T16:54:39.743Z,99990.10
2022-10-27T16:57:08.346Z,99997.33
2022-10-27T16:59:35.697Z,99997.36
2022-10-27T17:02:03.001Z,100002.02
2022-10-27T17:04:30.307Z,100006.88
2022-10-27T17:06:57.436Z,100012.45
2022-10-27T17:09:24.465Z,100013.98
2022-10-27T17:11:52.044Z,100014.37
2022-10-27T17:14:19.139Z,100013.19
2022-10-27T17:16:46.252Z,100017.15
2022-10-27T17:19:13.376Z,100018.98
2022-10-27T17:21:40.390Z,100019.47
2022-10-27T17:24:07.894Z,100020.23
2022-10-27T17:26:35.256Z,100020.13
2022-10-27T17:29:05.294Z,100015.98
2022-10-27T17:31:32.844Z,100017.56
2022-10-27T17:34:00.132Z,100016.11
2022-10-27T17:36:27.441Z,100015.95
2022-10-27T17:38:55.465Z,100015.45
2022-10-27T17:41:22.762Z,100015.31
2022-10-27T17:43:50.621Z,100013.04
2022-10-27T17:46:19.063Z,100012.91
2022-10-27T17:48:47.767Z,100011.80
2022-10-27T17:51:25.632Z,100016.14
2022-10-27T17:53:52.910Z,100021.95
2022-10-27T17:56:24.100Z,100022.83
2022-10-27T17:58:51.237Z,100021.59
2022-10-27T18:01:22.425Z,100019.92
2022-10-27T18:03:50.689Z,100019.05
2022-10-27T18:06:27.842Z,100022.21
2022-10-27T18:08:55.688Z,100017.48
2022-10-27T18:11:24.042Z,100019.22
2022-10-27T18:13:51.955Z,100015.10
2022-10-27T18:16:24.185Z,100016.10
2022-10-27T18:18:52.127Z,100020.40
2022-10-27T18:21:19.336Z,100020.73
2022-10-27T18:23:50.380Z,100023.72
2022-10-27T18:26:17.664Z,100024.44
2022-10-27T18:28:46.537Z,100031.20
2022-10-27T18:31:14.109Z,100029.46
2022-10-27T18:33:50.039Z,100028.95
2022-10-27T18:36:18.927Z,100033.95
2022-10-27T18:38:46.289Z,100033.65
2022-10-27T18:41:15.712Z,100039.56
2022-10-27T18:43:47.037Z,100039.88
2022-10-27T18:46:14.829Z,100044.27
2022-10-27T18:48:42.048Z,100043.20
2022-10-27T18:51:12.381Z,100043.61
2022-10-27T18:53:39.542Z,100041.63
2022-10-27T18:56:08.184Z,100042.59
2022-10-27T18:58:35.922Z,100038.28
2022-10-27T19:01:15.586Z,100044.91
2022-10-27T19:03:42.867Z,100053.55
2022-10-27T19:06:11.764Z,100052.43
2022-10-27T19:08:38.861Z,100051.95
2022-10-27T19:11:08.368Z,100053.83
2022-10-27T19:13:35.560Z,100050.16
2022-10-27T19:16:03.459Z,100046.46
2022-10-27T19:18:31.015Z,100050.13
2022-10-27T19:20:59.107Z,100052.97
2022-10-27T19:23:26.220Z,100053.72
2022-10-27T19:25:53.326Z,100052.20
2022-10-27T19:28:21.336Z,100052.59
2022-10-27T19:30:55.545Z,100054.92
2022-10-27T19:33:23.431Z,100058.61
2022-10-27T19:35:50.566Z,100061.50
2022-10-27T19:38:17.915Z,100064.16
2022-10-27T19:40:45.219Z,100069.32
2022-10-27T19:43:12.316Z,100071.38
2022-10-27T19:45:39.669Z,100077.08
2022-10-27T19:48:07.745Z,100073.77
2022-10-27T19:50:34.895Z,100076.61
2022-10-27T19:53:02.758Z,100078.48
2022-10-27T19:55:33.042Z,100086.63
2022-10-27T19:58:00.043Z,100089.26
2022-10-27T20:00:27.156Z,100089.41
2022-10-27T20:02:56.191Z,100088.23
2022-10-27T20:05:24.002Z,100088.96
2022-10-27T20:07:51.906Z,100088.65
2022-10-27T20:10:20.060Z,100093.70
2022-10-27T20:12:48.041Z,100093.65
2022-10-27T20:15:15.908Z,100096.38
2022-10-27T20:17:43.063Z,100096.42
2022-10-27T20:20:10.419Z,100097.33
2022-10-27T20:22:37.564Z,100096.08
2022-10-27T20:25:05.447Z,100094.39
2022-10-27T20:27:32.680Z,100092.52
2022-10-27T20:29:59.763Z,100091.65
2022-10-27T20:32:26.897Z,100087.75
2022-10-27T20:34:54.137Z,100085.50
2022-10-27T20:37:21.420Z,100083.04
2022-10-27T20:42:20.538Z,100084.92
2022-10-27T20:44:47.643Z,100089.60
2022-10-27T20:47:14.676Z,100094.80
2022-10-27T20:49:41.866Z,100094.50
2022-10-27T20:52:09.296Z,100092.48
2022-10-27T20:54:36.485Z,100093.09
2022-10-27T20:57:03.800Z,100099.48
2022-10-27T20:59:30.952Z,100098.93
2022-10-27T21:01:58.285Z,100093.93
2022-10-27T21:04:25.763Z,100093.63
2022-10-27T21:06:52.843Z,100092.20
2022-10-27T21:09:20.683Z,100094.64
2022-10-27T21:11:48.356Z,100092.95
2022-10-27T21:14:15.633Z,100093.38
2022-10-27T21:16:47.056Z,100091.73
2022-10-27T21:19:18.082Z,100091.54
2022-10-27T21:21:45.244Z,100087.55
2022-10-27T21:24:14.708Z,100081.15
2022-10-27T21:26:44.553Z,100084.33
2022-10-27T21:29:11.814Z,100085.95
2022-10-27T21:31:40.177Z,100083.45
2022-10-27T21:34:07.456Z,100082.89
2022-10-27T21:36:34.583Z,100083.74
2022-10-27T21:39:01.876Z,100084.34
2022-10-27T21:41:29.049Z,100083.13
2022-10-27T21:43:56.643Z,100083.45
2022-10-27T21:46:25.302Z,100086.19
2022-10-27T21:48:59.864Z,100083.71
2022-10-27T21:51:27.789Z,100079.02
2022-10-27T21:54:00.822Z,100081.66
2022-10-27T21:56:30.478Z,100079.89
2022-10-27T21:58:58.381Z,100077.06
2022-10-27T22:01:25.947Z,100080.94
2022-10-27T22:03:53.402Z,100078.71
2022-10-27T22:06:25.568Z,100078.17
2022-10-27T22:08:52.766Z,100074.40
2022-10-27T22:11:24.809Z,100078.72
2022-10-27T22:13:52.339Z,100078.41
2022-10-27T22:16:21.199Z,100083.04
2022-10-27T22:18:52.537Z,100084.82
2022-10-27T22:21:19.786Z,100086.89
2022-10-27T22:23:46.894Z,100090.35
2022-10-27T22:26:15.564Z,100090.59
2022-10-27T22:28:43.187Z,100090.34
2022-10-27T22:31:14.986Z,100094.68
2022-10-27T22:33:45.624Z,100095.30
2022-10-27T22:36:14.282Z,100096.83
2022-10-27T22:38:41.661Z,100096.39
2022-10-27T22:41:10.645Z,100099.45
2022-10-27T22:43:38.057Z,100098.73
2022-10-27T22:46:05.563Z,100101.90
2022-10-27T22:48:34.040Z,100098.27
2022-10-27T22:51:02.284Z,100097.90
2022-10-27T22:53:30.699Z,100093.21
2022-10-27T22:55:57.887Z,100093.98
2022-10-27T22:58:25.303Z,100095.32
2022-10-27T23:00:52.493Z,100095.84
2022-10-27T23:03:19.660Z,100092.48
2022-10-27T23:05:46.677Z,100096.45
2022-10-27T23:08:13.752Z,100090.85
2022-10-27T23:10:40.952Z,100094.52
2022-10-27T23:13:08.098Z,100091.86
2022-10-27T23:15:35.253Z,100092.83
2022-10-27T23:18:02.398Z,100093.26
2022-10-27T23:20:29.475Z,100091.20
2022-10-27T23:22:56.495Z,100091.17
2022-10-27T23:25:23.637Z,100090.59
2022-10-27T23:27:53.199Z,100082.86
2022-10-27T23:30:20.607Z,100085.56
2022-10-27T23:32:47.702Z,100087.98
2022-10-27T23:35:14.808Z,100084.92
2022-10-27T23:37:41.890Z,100088.77
2022-10-27T23:40:09.820Z,100090.12
2022-10-27T23:42:36.967Z,100086.98
2022-10-27T23:45:04.833Z,100085.91
2022-10-27T23:47:31.983Z,100083.04
2022-10-27T23:49:59.137Z,100079.63
2022-10-27T23:52:26.305Z,100078.83
2022-10-27T23:54:53.411Z,100084.52
2022-10-27T23:57:20.591Z,100081.85
2022-10-27T23:59:47.630Z,100084.45
